Time;durP1;ratioP1;P1;durP2;ratioP2;P2;SDS_P1;SDS_P2;PMS_P1;PMS_P2;Temp;Humidity;BMP_temperature;BMP_pressure;BME280_temperature;BME280_humidity;BME280_pressure;Samples;Min_cycle;Max_cycle;Signal;HPM_P1;HPM_P2
2021/12/23 00:00:57;;;;;;;42.70;21.00;;;-2.60;99.90;;;;;;5042067;28;20281;-73
2021/12/23 00:03:23;;;;;;;42.50;21.17;;;-2.20;99.90;;;;;;5042654;28;20555;-70
2021/12/23 00:05:48;;;;;;;46.77;21.83;;;-2.50;99.90;;;;;;5028023;28;20471;-70
2021/12/23 00:08:14;;;;;;;37.70;19.00;;;-2.30;99.90;;;;;;5030501;28;20261;-70
2021/12/23 00:10:40;;;;;;;41.30;20.37;;;-2.40;99.90;;;;;;5030876;28;20189;-70
2021/12/23 00:13:07;;;;;;;40.57;20.20;;;-2.40;99.90;;;;;;5033508;28;20178;-71
2021/12/23 00:15:39;;;;;;;40.53;19.60;;;-2.00;99.90;;;;;;5058235;28;20573;-71
2021/12/23 00:18:40;;;;;;;42.80;20.20;;;-2.40;99.90;;;;;;5055432;28;20541;-73
2021/12/23 00:23:49;;;;;;;47.07;18.97;;;-1.90;99.90;;;;;;5031014;28;20523;-71
2021/12/23 00:26:15;;;;;;;37.23;18.63;;;-2.20;99.90;;;;;;5038966;28;20850;-73
2021/12/23 00:28:41;;;;;;;39.63;18.57;;;-1.70;99.90;;;;;;5047771;28;20505;-69
2021/12/23 00:31:07;;;;;;;39.97;18.23;;;-1.90;99.90;;;;;;5043831;28;20285;-71
2021/12/23 00:33:35;;;;;;;37.43;19.23;;;-1.90;99.90;;;;;;5044197;28;20184;-71
2021/12/23 00:36:03;;;;;;;37.77;19.47;;;-1.40;99.90;;;;;;5028026;28;20217;-71
2021/12/23 00:38:34;;;;;;;37.53;19.77;;;-1.80;99.90;;;;;;5029115;28;20802;-71
2021/12/23 00:41:02;;;;;;;34.70;17.50;;;-1.70;99.90;;;;;;5033753;28;20534;-70
2021/12/23 00:43:28;;;;;;;36.80;17.97;;;-1.30;99.90;;;;;;5043981;28;20953;-72
2021/12/23 00:45:54;;;;;;;34.80;17.90;;;-1.70;99.90;;;;;;5052721;28;20459;-71
2021/12/23 00:48:19;;;;;;;39.63;19.73;;;-1.70;99.90;;;;;;5030141;28;20546;-71
2021/12/23 00:50:46;;;;;;;42.13;19.60;;;-1.60;99.90;;;;;;5040678;28;20177;-71
2021/12/23 00:53:17;;;;;;;37.00;18.83;;;-1.60;99.90;;;;;;5043981;28;20527;-71
2021/12/23 00:55:43;;;;;;;37.33;18.23;;;-1.20;99.90;;;;;;5030090;28;20559;-70
2021/12/23 00:58:09;;;;;;;36.07;18.77;;;-1.10;99.90;;;;;;5029449;28;20447;-71
2021/12/23 01:00:35;;;;;;;41.80;20.10;;;-1.10;99.90;;;;;;5028553;28;20511;-71
2021/12/23 01:03:01;;;;;;;39.97;19.60;;;-1.50;99.90;;;;;;5030163;28;20233;-71
2021/12/23 01:05:27;;;;;;;37.00;18.90;;;-1.10;99.90;;;;;;5028748;28;20269;-71
2021/12/23 01:07:53;;;;;;;44.33;20.43;;;-1.00;99.90;;;;;;5035942;28;20416;-71
2021/12/23 01:10:20;;;;;;;34.73;18.20;;;-1.30;99.90;;;;;;5047991;28;20407;-73
2021/12/23 01:12:49;;;;;;;51.17;22.90;;;-1.50;99.90;;;;;;5029548;28;20235;-71
2021/12/23 01:15:38;;;;;;;38.47;18.40;;;-1.10;99.90;;;;;;5053846;28;20460;-71
2021/12/23 01:18:13;;;;;;;37.10;18.70;;;-1.00;99.90;;;;;;5057045;28;20518;-71
2021/12/23 01:21:03;;;;;;;42.17;19.43;;;-1.50;99.90;;;;;;5027058;28;20834;-74
2021/12/23 01:23:28;;;;;;;38.47;19.33;;;-1.50;99.90;;;;;;5030014;28;20511;-72
2021/12/23 01:25:54;;;;;;;35.93;19.70;;;-1.10;99.90;;;;;;5027446;28;20618;-71
2021/12/23 01:28:20;;;;;;;43.33;20.87;;;-1.10;99.90;;;;;;5030526;28;20201;-71
2021/12/23 01:30:46;;;;;;;45.13;19.10;;;-1.50;99.90;;;;;;5036826;28;20281;-71
2021/12/23 01:33:12;;;;;;;37.47;19.30;;;-1.20;99.90;;;;;;5029389;28;20821;-70
2021/12/23 01:35:39;;;;;;;37.80;20.67;;;-1.20;99.90;;;;;;5028315;28;20220;-72
2021/12/23 01:38:06;;;;;;;40.23;19.43;;;-1.50;99.90;;;;;;5028936;28;20425;-70
2021/12/23 01:40:32;;;;;;;38.30;20.10;;;-1.50;99.90;;;;;;5030900;28;20913;-71
2021/12/23 01:42:58;;;;;;;40.57;20.87;;;-1.60;99.90;;;;;;5040954;28;20519;-74
2021/12/23 01:45:29;;;;;;;38.80;18.70;;;-1.20;99.90;;;;;;5060363;28;20471;-74
2021/12/23 01:47:55;;;;;;;37.87;19.00;;;-1.40;99.90;;;;;;5036295;28;20774;-70
2021/12/23 01:50:24;;;;;;;39.80;19.07;;;-1.50;99.90;;;;;;5038713;28;20428;-71
2021/12/23 01:52:50;;;;;;;37.87;18.97;;;-1.50;99.90;;;;;;5045385;28;20515;-70
2021/12/23 01:55:16;;;;;;;39.87;19.70;;;-1.50;99.90;;;;;;5029623;28;20486;-71
2021/12/23 01:57:44;;;;;;;38.40;18.30;;;-1.40;99.90;;;;;;5039787;28;20431;-71
2021/12/23 02:00:14;;;;;;;42.23;20.33;;;-1.40;99.90;;;;;;5049898;28;20169;-70
2021/12/23 02:02:40;;;;;;;34.87;19.57;;;-3.20;99.90;;;;;;5058900;28;20619;-71
2021/12/23 02:05:07;;;;;;;37.33;20.03;;;-1.30;99.90;;;;;;5027136;28;20435;-69
2021/12/23 02:07:33;;;;;;;42.90;19.93;;;-1.40;99.90;;;;;;5028574;28;20464;-72
2021/12/23 02:09:59;;;;;;;40.23;20.30;;;-1.40;99.90;;;;;;5034416;28;20844;-71
2021/12/23 02:12:25;;;;;;;41.63;19.30;;;-1.30;99.90;;;;;;5043450;28;20439;-69
2021/12/23 02:14:51;;;;;;;44.20;18.90;;;-1.40;99.90;;;;;;5044056;28;20519;-70
2021/12/23 02:17:17;;;;;;;37.17;18.33;;;-1.40;99.90;;;;;;5032867;28;20424;-70
2021/12/23 02:19:42;;;;;;;36.23;18.60;;;-1.40;99.90;;;;;;5037313;28;20695;-71
2021/12/23 02:22:08;;;;;;;41.57;20.10;;;-1.40;99.90;;;;;;5027033;28;20247;-71
2021/12/23 02:24:33;;;;;;;48.60;19.40;;;-1.40;99.90;;;;;;5029185;28;20189;-69
2021/12/23 02:26:59;;;;;;;35.77;17.27;;;-1.40;99.90;;;;;;5026365;28;20210;-70
2021/12/23 02:29:24;;;;;;;36.80;19.20;;;-1.50;99.90;;;;;;5040330;28;20224;-70
2021/12/23 02:31:52;;;;;;;35.20;17.03;;;-1.40;99.90;;;;;;5028177;28;20236;-69
2021/12/23 02:34:19;;;;;;;38.07;18.03;;;-1.40;99.90;;;;;;5034549;28;20189;-74
2021/12/23 02:37:03;;;;;;;37.27;18.60;;;-1.40;99.90;;;;;;5028816;28;20432;-70
2021/12/23 02:39:29;;;;;;;38.43;18.30;;;-1.30;99.90;;;;;;5038467;28;20424;-69
2021/12/23 02:41:56;;;;;;;39.80;19.67;;;-1.30;99.90;;;;;;5043249;28;20471;-70
2021/12/23 02:44:21;;;;;;;39.77;20.20;;;-1.30;99.90;;;;;;5052803;28;20434;-68
2021/12/23 02:46:48;;;;;;;45.50;19.73;;;-1.30;99.90;;;;;;5041219;28;20456;-70
2021/12/23 02:49:14;;;;;;;44.07;19.77;;;-1.10;99.90;;;;;;5042442;28;20256;-70
2021/12/23 02:51:42;;;;;;;42.23;19.43;;;-1.20;99.90;;;;;;5042054;28;20444;-69
2021/12/23 02:54:07;;;;;;;39.10;20.57;;;-1.20;99.90;;;;;;5043651;28;20533;-70
2021/12/23 02:56:33;;;;;;;41.70;18.20;;;-1.10;99.90;;;;;;5041832;28;20474;-71
2021/12/23 02:58:59;;;;;;;39.57;20.20;;;;;;;;;;5034462;28;20647;-72
2021/12/23 03:01:25;;;;;;;39.37;19.20;;;-1.10;99.90;;;;;;5027793;28;20444;-71
2021/12/23 03:03:51;;;;;;;39.83;19.87;;;-1.10;99.90;;;;;;5029182;28;20450;-73
2021/12/23 03:06:19;;;;;;;39.37;20.27;;;-1.10;99.90;;;;;;5026784;28;20201;-73
2021/12/23 03:08:48;;;;;;;41.83;18.70;;;-1.10;99.90;;;;;;5029630;28;20604;-70
2021/12/23 03:11:16;;;;;;;37.73;18.30;;;1.10;99.90;;;;;;5033712;28;20937;-70
2021/12/23 03:13:42;;;;;;;38.30;19.57;;;-1.10;99.90;;;;;;5031359;28;20467;-70
2021/12/23 03:16:08;;;;;;;41.53;19.40;;;-1.10;99.90;;;;;;5040036;28;20498;-70
2021/12/23 03:18:35;;;;;;;41.80;20.00;;;-1.00;99.90;;;;;;5026929;28;20205;-70
2021/12/23 03:21:03;;;;;;;43.50;21.17;;;-1.00;99.90;;;;;;5026769;28;20464;-71
2021/12/23 03:23:28;;;;;;;40.90;20.37;;;-1.00;99.90;;;;;;5038271;28;20442;-71
2021/12/23 03:25:54;;;;;;;39.90;20.60;;;-1.00;99.90;;;;;;5029471;28;20460;-69
2021/12/23 03:28:20;;;;;;;41.73;19.50;;;-1.00;99.90;;;;;;5038755;28;20257;-70
2021/12/23 03:30:47;;;;;;;39.60;19.70;;;-0.80;99.90;;;;;;5034486;28;20181;-70
2021/12/23 03:33:12;;;;;;;39.10;18.90;;;-0.80;99.90;;;;;;5036906;28;20185;-72
2021/12/23 03:35:38;;;;;;;46.00;22.80;;;-0.80;99.90;;;;;;5038444;28;20420;-70
2021/12/23 03:38:06;;;;;;;48.23;21.60;;;-0.80;99.90;;;;;;5035627;28;20241;-70
2021/12/23 03:40:32;;;;;;;41.37;21.17;;;-0.80;99.90;;;;;;5027504;28;20503;-70
2021/12/23 03:42:58;;;;;;;40.47;20.07;;;-0.70;99.90;;;;;;5026067;28;20459;-71
2021/12/23 03:45:24;;;;;;;39.97;19.53;;;-0.70;99.90;;;;;;5050360;28;20423;-73
2021/12/23 03:47:50;;;;;;;38.67;20.00;;;-0.30;99.90;;;;;;5032584;28;20709;-71
2021/12/23 03:50:18;;;;;;;49.67;22.97;;;-0.70;99.90;;;;;;5044682;28;20945;-69
2021/12/23 03:52:44;;;;;;;41.57;20.20;;;-0.70;99.90;;;;;;5043763;28;20478;-73
2021/12/23 03:55:12;;;;;;;38.77;19.50;;;-0.70;99.90;;;;;;5025685;28;20447;-70
2021/12/23 03:57:37;;;;;;;47.73;21.07;;;-0.40;99.90;;;;;;5026902;28;20420;-70
2021/12/23 04:00:05;;;;;;;38.47;19.57;;;-0.90;99.90;;;;;;5027434;28;20890;-69
2021/12/23 04:02:31;;;;;;;40.70;20.90;;;-0.90;99.90;;;;;;5026925;28;20220;-69
2021/12/23 04:04:57;;;;;;;40.83;20.57;;;-0.60;99.90;;;;;;5036316;28;20454;-70
2021/12/23 04:07:22;;;;;;;39.10;19.97;;;-1.00;99.90;;;;;;5029279;28;20206;-69
2021/12/23 04:09:48;;;;;;;39.20;19.37;;;-0.90;99.90;;;;;;5039116;28;20177;-69
2021/12/23 04:12:13;;;;;;;47.23;21.63;;;-0.90;99.90;;;;;;5033934;28;20214;-70
2021/12/23 04:14:39;;;;;;;40.13;20.37;;;-0.90;99.90;;;;;;5046465;28;20200;-71
2021/12/23 04:17:05;;;;;;;42.00;21.43;;;-0.50;99.90;;;;;;5059595;28;20589;-70
2021/12/23 04:19:32;;;;;;;44.30;20.83;;;-0.90;99.90;;;;;;5029141;28;20568;-70
2021/12/23 04:21:57;;;;;;;38.97;21.27;;;-1.00;99.90;;;;;;5025400;28;20205;-70
2021/12/23 04:24:24;;;;;;;39.50;19.90;;;-1.00;99.90;;;;;;5025805;28;20433;-70
2021/12/23 04:26:50;;;;;;;44.63;20.03;;;-1.00;99.90;;;;;;5043343;28;20201;-69
2021/12/23 04:29:15;;;;;;;44.03;19.93;;;-0.80;99.90;;;;;;5046850;28;20431;-70
2021/12/23 04:31:41;;;;;;;42.03;19.80;;;-1.20;99.90;;;;;;5044944;28;20461;-70
2021/12/23 04:34:07;;;;;;;40.47;20.70;;;-1.10;99.90;;;;;;5036901;28;20218;-69
2021/12/23 04:36:33;;;;;;;41.17;20.20;;;-1.20;99.90;;;;;;5028296;28;20213;-71
2021/12/23 04:38:59;;;;;;;41.83;20.77;;;-1.10;99.90;;;;;;5028920;28;20938;-74
2021/12/23 04:41:25;;;;;;;41.43;21.37;;;-1.30;99.90;;;;;;5039694;28;20639;-71
2021/12/23 04:43:50;;;;;;;41.37;21.90;;;-1.30;99.90;;;;;;5045393;28;20184;-72
2021/12/23 04:46:16;;;;;;;40.97;20.57;;;-1.30;99.90;;;;;;5053610;28;21287;-71
2021/12/23 04:48:44;;;;;;;42.63;20.50;;;-1.20;99.90;;;;;;5048246;28;20539;-71
2021/12/23 04:51:11;;;;;;;38.13;19.00;;;-1.20;99.90;;;;;;5043403;28;20197;-70
2021/12/23 04:53:36;;;;;;;41.83;20.80;;;-1.20;99.90;;;;;;5028962;28;20817;-70
2021/12/23 04:56:02;;;;;;;39.30;20.87;;;-1.20;99.90;;;;;;5030148;28;20429;-71
2021/12/23 04:58:28;;;;;;;41.20;20.17;;;-1.20;99.90;;;;;;5030077;28;20653;-72
2021/12/23 05:00:53;;;;;;;46.50;21.63;;;-1.10;99.90;;;;;;5029776;28;20217;-71
2021/12/23 05:03:21;;;;;;;43.70;21.20;;;-0.70;99.90;;;;;;5028943;28;20679;-71
2021/12/23 05:05:47;;;;;;;41.73;21.97;;;-1.00;99.90;;;;;;5028818;28;20678;-71
2021/12/23 05:08:14;;;;;;;42.93;20.27;;;-0.50;99.90;;;;;;5042452;28;20580;-70
2021/12/23 05:10:40;;;;;;;37.67;20.13;;;-0.90;99.90;;;;;;5036295;28;20194;-69
2021/12/23 05:13:06;;;;;;;47.40;20.53;;;-0.90;99.90;;;;;;5039446;28;20417;-71
2021/12/23 05:15:32;;;;;;;40.87;20.60;;;-0.90;99.90;;;;;;5050790;28;20503;-73
2021/12/23 05:17:58;;;;;;;39.73;20.03;;;-0.90;99.90;;;;;;5031047;28;20209;-70
2021/12/23 05:20:24;;;;;;;38.57;19.87;;;-1.00;99.90;;;;;;5028527;28;20675;-70
2021/12/23 05:22:50;;;;;;;38.50;18.43;;;-1.00;99.90;;;;;;5030059;28;20459;-72
2021/12/23 05:25:17;;;;;;;38.57;18.90;;;-1.00;99.90;;;;;;5032367;28;20433;-72
2021/12/23 05:27:43;;;;;;;42.97;20.23;;;-1.10;99.90;;;;;;5047425;28;21052;-71
2021/12/23 05:30:12;;;;;;;41.17;19.90;;;-1.10;99.90;;;;;;5031386;28;21107;-74
2021/12/23 05:32:38;;;;;;;40.17;19.00;;;-1.10;99.90;;;;;;5029818;28;20447;-70
2021/12/23 05:35:05;;;;;;;38.30;19.40;;;-1.10;99.90;;;;;;5027766;28;20432;-75
2021/12/23 05:37:31;;;;;;;40.07;19.57;;;-1.10;99.90;;;;;;5037061;28;20189;-71
2021/12/23 05:39:56;;;;;;;42.70;20.17;;;-1.20;99.90;;;;;;5030153;28;20918;-71
2021/12/23 05:42:22;;;;;;;36.27;19.40;;;-1.20;99.90;;;;;;5039215;28;20205;-70
2021/12/23 05:44:47;;;;;;;42.20;20.00;;;-1.20;99.90;;;;;;5054500;28;20185;-71
2021/12/23 05:47:13;;;;;;;44.80;19.33;;;-1.20;99.90;;;;;;5047093;28;20201;-71
2021/12/23 05:49:38;;;;;;;38.40;17.20;;;-1.20;99.90;;;;;;5039707;28;20197;-71
2021/12/23 05:52:04;;;;;;;43.97;19.40;;;-1.20;99.90;;;;;;5037581;28;20212;-71
2021/12/23 05:54:30;;;;;;;43.33;19.50;;;;;;;;;;5046477;28;20268;-72
2021/12/23 05:57:01;;;;;;;43.90;20.20;;;-1.20;99.90;;;;;;5043549;28;20215;-73
2021/12/23 05:59:31;;;;;;;43.13;22.37;;;-1.20;99.90;;;;;;5028719;28;20444;-71
2021/12/23 06:01:57;;;;;;;47.07;20.40;;;-1.20;99.90;;;;;;5029372;28;20536;-71
2021/12/23 06:04:23;;;;;;;40.43;20.60;;;-1.30;99.90;;;;;;5027910;28;20563;-71
2021/12/23 06:06:49;;;;;;;38.00;18.60;;;-1.30;99.90;;;;;;5028392;28;20267;-71
2021/12/23 06:09:14;;;;;;;39.73;18.27;;;-1.30;99.90;;;;;;5034434;28;20818;-71
2021/12/23 06:11:40;;;;;;;39.70;19.27;;;-1.30;99.90;;;;;;5028618;28;20208;-73
2021/12/23 06:14:05;;;;;;;44.97;20.50;;;-1.30;99.90;;;;;;5041894;28;20168;-71
2021/12/23 06:16:31;;;;;;;43.83;20.80;;;-1.30;99.90;;;;;;5052689;28;20259;-71
2021/12/23 06:18:56;;;;;;;43.50;19.67;;;-1.20;99.90;;;;;;5028551;28;20182;-71
2021/12/23 06:21:26;;;;;;;43.67;20.30;;;-1.20;99.90;;;;;;5027985;28;20204;-73
2021/12/23 06:23:52;;;;;;;43.17;19.50;;;-1.60;99.90;;;;;;5028867;28;20269;-71
2021/12/23 06:26:18;;;;;;;40.73;19.83;;;-1.20;99.90;;;;;;5038456;28;20564;-71
2021/12/23 06:28:43;;;;;;;39.43;19.40;;;-1.20;99.90;;;;;;5043043;28;20287;-72
2021/12/23 06:31:09;;;;;;;43.43;21.20;;;-1.20;99.90;;;;;;5028930;28;20568;-72
2021/12/23 06:33:35;;;;;;;40.63;19.57;;;-1.20;99.90;;;;;;5028198;28;20544;-69
2021/12/23 14:58:00;;;;;;;35.97;18.50;;;3.40;99.90;;;;;;5065007;28;20846;-66
2021/12/23 15:00:41;;;;;;;40.07;20.10;;;3.80;99.90;;;;;;5064126;28;20196;-68
2021/12/23 15:03:25;;;;;;;32.80;16.60;;;3.50;99.90;;;;;;5039218;28;20485;-68
2021/12/23 15:05:53;;;;;;;31.53;17.60;;;3.70;99.90;;;;;;5043303;28;20419;-68
2021/12/23 15:08:24;;;;;;;36.00;19.07;;;3.80;99.90;;;;;;5045856;28;20403;-67
2021/12/23 15:10:52;;;;;;;30.50;18.03;;;4.00;99.90;;;;;;5044365;28;20412;-68
2021/12/23 15:13:28;;;;;;;35.90;16.60;;;4.30;99.90;;;;;;5045228;28;20489;-68
2021/12/23 15:15:58;;;;;;;34.67;18.67;;;4.10;99.90;;;;;;5053286;28;20453;-68
2021/12/23 15:18:38;;;;;;;36.07;19.60;;;4.60;99.90;;;;;;5063505;28;20460;-68
2021/12/23 15:21:10;;;;;;;36.07;18.60;;;4.30;99.90;;;;;;5040180;28;20450;-68
2021/12/23 15:23:53;;;;;;;40.17;19.63;;;4.30;99.90;;;;;;5025999;28;20412;-67
2021/12/23 15:26:32;;;;;;;40.50;20.80;;;4.30;99.90;;;;;;5026014;28;20412;-68
2021/12/23 15:29:15;;;;;;;26.33;15.03;;;4.40;99.90;;;;;;5030705;28;20933;-68
2021/12/23 15:31:43;;;;;;;30.20;17.40;;;4.60;99.90;;;;;;5044078;28;20443;-68
2021/12/23 15:34:10;;;;;;;33.03;17.30;;;4.90;99.90;;;;;;5044955;28;20420;-68
2021/12/23 15:36:41;;;;;;;29.03;16.40;;;4.60;99.90;;;;;;5044635;28;20456;-68
2021/12/23 15:39:21;;;;;;;33.73;17.53;;;4.70;99.90;;;;;;5042521;28;20421;-72
2021/12/23 15:41:46;;;;;;;31.67;16.97;;;4.70;99.90;;;;;;5038254;28;20447;-68
2021/12/23 15:44:13;;;;;;;31.63;16.57;;;4.70;99.90;;;;;;5042038;28;20495;-68
2021/12/23 15:46:38;;;;;;;33.80;17.10;;;5.40;99.90;;;;;;5043682;28;20269;-68
2021/12/23 15:49:04;;;;;;;34.40;16.50;;;5.40;99.90;;;;;;5044785;28;20510;-68
2021/12/23 15:51:30;;;;;;;40.33;16.97;;;5.10;99.90;;;;;;5043287;28;20189;-67
2021/12/23 15:53:55;;;;;;;27.67;16.07;;;5.10;99.90;;;;;;5044900;28;20177;-67
2021/12/23 15:56:21;;;;;;;30.10;16.40;;;5.00;99.90;;;;;;5044263;28;20202;-69
2021/12/23 15:58:47;;;;;;;33.00;18.47;;;5.10;99.90;;;;;;5044282;28;20180;-69
2021/12/23 16:01:13;;;;;;;31.83;16.00;;;5.00;99.90;;;;;;5043791;28;20282;-68
2021/12/23 16:03:40;;;;;;;30.63;16.00;;;5.00;99.90;;;;;;5044414;28;21099;-69
2021/12/23 16:08:51;;;;;;;28.97;16.77;;;5.00;99.90;;;;;;5033715;28;20496;-68
2021/12/23 16:11:18;;;;;;;25.83;13.83;;;5.00;99.90;;;;;;5030676;28;20439;-68
2021/12/23 16:13:44;;;;;;;26.97;15.60;;;5.00;99.90;;;;;;5026652;28;20419;-68
2021/12/23 16:16:10;;;;;;;27.50;15.97;;;5.00;99.90;;;;;;5033879;28;20474;-68
2021/12/23 16:18:35;;;;;;;27.47;15.53;;;5.00;99.90;;;;;;5028573;28;20263;-69
2021/12/23 16:21:01;;;;;;;34.10;15.93;;;4.90;99.90;;;;;;5029494;28;20652;-68
2021/12/23 16:23:26;;;;;;;29.20;16.00;;;4.90;99.90;;;;;;5030507;28;20196;-68
2021/12/23 16:25:52;;;;;;;30.80;16.20;;;5.30;99.90;;;;;;5030142;28;20184;-68
2021/12/23 16:28:20;;;;;;;27.63;16.40;;;4.90;99.90;;;;;;5028210;28;20211;-68
2021/12/23 16:30:48;;;;;;;31.53;16.17;;;4.90;99.90;;;;;;5029642;28;20174;-67
2021/12/23 16:33:16;;;;;;;30.77;15.40;;;4.80;99.90;;;;;;5030140;28;20440;-68
2021/12/23 16:35:43;;;;;;;27.07;15.50;;;5.10;99.90;;;;;;5024371;28;20422;-67
2021/12/23 16:38:12;;;;;;;31.70;16.23;;;5.20;99.90;;;;;;5012410;28;20420;-67
2021/12/23 16:40:43;;;;;;;34.80;19.30;;;5.00;99.90;;;;;;5023913;28;20950;-67
2021/12/23 16:43:08;;;;;;;36.73;21.93;;;5.00;99.90;;;;;;5029657;28;20452;-68
2021/12/23 16:45:36;;;;;;;38.17;22.63;;;5.20;99.90;;;;;;5030050;28;20424;-68
2021/12/23 16:48:02;;;;;;;33.77;19.17;;;5.30;99.90;;;;;;5025035;28;20166;-68
2021/12/23 16:50:28;;;;;;;35.87;19.17;;;5.10;99.90;;;;;;5027117;28;20526;-68
2021/12/23 16:52:57;;;;;;;33.97;20.83;;;5.20;99.90;;;;;;5029571;28;20613;-68
2021/12/23 16:58:03;;;;;;;36.57;20.90;;;5.30;99.90;;;;;;5029192;28;20428;-67
2021/12/23 17:00:29;;;;;;;40.17;20.30;;;5.30;99.90;;;;;;5029548;28;20912;-68
2021/12/23 17:02:56;;;;;;;41.57;23.50;;;5.40;99.90;;;;;;5027925;28;20455;-69
2021/12/23 17:05:24;;;;;;;42.20;22.73;;;5.40;99.90;;;;;;5028157;28;20220;-70
2021/12/23 17:07:51;;;;;;;39.17;18.93;;;5.50;99.90;;;;;;5027781;28;20432;-68
2021/12/23 17:10:21;;;;;;;35.77;19.50;;;5.80;99.90;;;;;;5040083;28;20427;-69
2021/12/23 17:12:47;;;;;;;33.40;18.70;;;5.50;99.90;;;;;;5033433;28;20602;-69
2021/12/23 17:15:13;;;;;;;33.23;19.80;;;5.50;99.90;;;;;;5028283;28;20510;-68
2021/12/23 17:17:39;;;;;;;35.83;19.53;;;5.50;99.90;;;;;;5028793;28;20471;-70
2021/12/23 17:22:56;;;;;;;29.50;15.83;;;5.50;99.90;;;;;;5029196;28;20468;-68
2021/12/23 17:25:22;;;;;;;26.83;16.47;;;5.50;99.90;;;;;;5034877;28;20976;-69
2021/12/23 17:27:48;;;;;;;26.13;16.10;;;5.50;99.90;;;;;;5023059;28;20448;-68
2021/12/23 17:30:14;;;;;;;30.90;16.20;;;;;;;;;;5029098;28;20189;-69
2021/12/23 17:32:40;;;;;;;30.87;17.67;;;5.50;99.90;;;;;;5028517;28;20217;-68
2021/12/23 17:35:09;;;;;;;43.83;19.40;;;5.50;99.90;;;;;;5027970;28;20756;-69
2021/12/23 17:37:35;;;;;;;29.60;15.90;;;5.50;99.90;;;;;;5028622;28;20555;-68
2021/12/23 17:40:01;;;;;;;25.20;15.00;;;5.50;99.90;;;;;;5039499;28;20782;-69
2021/12/23 17:42:27;;;;;;;26.30;14.93;;;5.50;99.90;;;;;;5026168;28;20440;-68
2021/12/23 17:44:52;;;;;;;23.97;15.03;;;5.50;99.90;;;;;;5032367;28;20297;-68
2021/12/23 17:47:18;;;;;;;23.80;14.37;;;5.50;99.90;;;;;;5055293;28;20563;-69
2021/12/23 17:49:43;;;;;;;21.60;13.77;;;5.50;99.90;;;;;;5027686;28;20261;-68
2021/12/23 17:52:10;;;;;;;25.30;13.33;;;5.50;99.90;;;;;;5027400;28;20229;-68
2021/12/23 17:54:36;;;;;;;25.43;14.30;;;5.50;99.90;;;;;;5027979;28;20229;-67
2021/12/23 17:57:03;;;;;;;28.80;15.87;;;5.50;99.90;;;;;;5028536;28;20468;-68
2021/12/23 17:59:29;;;;;;;33.47;15.70;;;5.60;99.90;;;;;;5028880;28;20178;-68
2021/12/23 18:01:55;;;;;;;27.70;15.60;;;5.70;99.90;;;;;;5043527;28;20592;-68
2021/12/23 18:04:20;;;;;;;31.70;18.33;;;5.70;99.90;;;;;;5027211;28;20672;-69
2021/12/23 18:06:47;;;;;;;35.67;19.80;;;5.80;99.90;;;;;;5027096;28;20212;-67
2021/12/23 18:09:14;;;;;;;31.97;17.37;;;5.70;99.90;;;;;;5023742;28;20213;-68
2021/12/23 18:11:42;;;;;;;29.37;17.37;;;5.70;99.90;;;;;;5025395;28;20452;-68
2021/12/23 18:14:10;;;;;;;36.20;19.60;;;5.70;99.90;;;;;;5025567;28;20447;-68
2021/12/23 18:16:35;;;;;;;35.20;19.20;;;5.80;99.90;;;;;;5029517;28;20973;-68
2021/12/23 18:19:02;;;;;;;32.73;17.27;;;5.70;99.90;;;;;;5027837;28;20413;-68
2021/12/23 18:21:28;;;;;;;28.43;16.20;;;5.90;99.90;;;;;;5026330;28;20201;-68
2021/12/23 18:23:53;;;;;;;28.10;16.10;;;5.90;99.90;;;;;;5027815;28;20429;-68
2021/12/23 18:26:20;;;;;;;24.60;14.73;;;5.90;99.90;;;;;;5028686;28;20208;-68
2021/12/23 18:28:47;;;;;;;24.87;14.57;;;6.00;99.90;;;;;;5023232;28;20190;-68
2021/12/23 18:31:13;;;;;;;22.57;13.00;;;6.30;99.90;;;;;;5008058;28;20483;-68
2021/12/23 18:33:39;;;;;;;22.87;13.87;;;6.30;99.90;;;;;;5012965;28;20459;-68
2021/12/23 18:36:07;;;;;;;22.70;14.00;;;6.40;99.90;;;;;;5027121;28;20524;-68
2021/12/23 18:38:36;;;;;;;22.97;12.70;;;6.60;99.90;;;;;;5027540;28;20520;-68
2021/12/23 18:41:03;;;;;;;19.70;11.17;;;6.60;99.90;;;;;;5022200;28;20432;-68
2021/12/23 18:43:30;;;;;;;20.97;11.80;;;6.70;99.90;;;;;;5028041;28;20429;-68
2021/12/23 18:45:58;;;;;;;19.80;11.73;;;6.80;99.90;;;;;;5035425;28;20438;-67
2021/12/23 18:48:24;;;;;;;19.17;11.67;;;6.90;99.90;;;;;;5043564;28;20415;-68
2021/12/23 18:50:50;;;;;;;21.50;13.40;;;6.90;99.90;;;;;;5026584;28;20933;-67
2021/12/23 18:53:16;;;;;;;21.63;12.60;;;6.90;99.90;;;;;;5026290;28;20287;-68
2021/12/23 18:55:42;;;;;;;17.37;10.53;;;7.00;99.90;;;;;;5026233;28;20454;-68
2021/12/23 18:58:08;;;;;;;19.77;10.77;;;7.10;99.90;;;;;;5027832;28;20424;-68
2021/12/23 19:00:41;;;;;;;18.53;11.20;;;7.10;99.90;;;;;;5027476;28;20178;-68
2021/12/23 19:03:21;;;;;;;17.07;10.40;;;7.20;99.90;;;;;;5028485;28;20189;-68
2021/12/23 19:06:03;;;;;;;17.63;10.63;;;7.30;99.90;;;;;;5024937;28;20474;-68
2021/12/23 19:08:31;;;;;;;18.27;9.50;;;7.40;99.90;;;;;;5027400;28;20530;-69
2021/12/23 19:10:57;;;;;;;17.37;10.77;;;7.40;99.90;;;;;;5026929;28;20590;-69
2021/12/23 19:13:23;;;;;;;18.40;11.20;;;7.40;99.90;;;;;;5027827;28;20424;-69
2021/12/23 19:15:48;;;;;;;16.93;9.03;;;7.50;99.90;;;;;;5047939;28;20428;-69
2021/12/23 19:18:14;;;;;;;18.40;10.97;;;7.60;99.90;;;;;;5029941;28;20734;-69
2021/12/23 19:20:40;;;;;;;16.57;10.03;;;7.60;99.90;;;;;;5035868;28;20175;-69
2021/12/23 19:23:07;;;;;;;14.90;9.10;;;7.60;99.90;;;;;;5019277;28;20202;-69
2021/12/23 19:25:34;;;;;;;16.83;9.93;;;7.70;99.90;;;;;;5027494;28;20428;-69
2021/12/23 19:28:00;;;;;;;14.20;9.10;;;7.70;99.90;;;;;;5027273;28;20428;-69
2021/12/23 19:30:26;;;;;;;19.57;11.37;;;7.80;99.90;;;;;;5026412;28;20409;-70
2021/12/23 19:32:52;;;;;;;17.23;9.70;;;7.80;99.90;;;;;;5027646;28;20834;-70
2021/12/23 19:35:19;;;;;;;13.67;9.30;;;7.80;99.90;;;;;;5026930;28;20412;-70
2021/12/23 19:37:46;;;;;;;14.30;9.70;;;7.80;99.90;;;;;;5026513;28;20598;-69
2021/12/23 19:40:12;;;;;;;14.50;9.30;;;7.80;99.90;;;;;;5042559;28;20427;-70
2021/12/23 19:42:38;;;;;;;18.10;9.70;;;7.90;99.90;;;;;;5027460;28;20451;-70
2021/12/23 19:45:04;;;;;;;14.67;9.30;;;8.00;99.90;;;;;;5037309;28;20813;-70
2021/12/23 19:47:30;;;;;;;14.97;9.80;;;8.00;99.90;;;;;;5030684;28;20178;-70
2021/12/23 19:49:56;;;;;;;16.70;10.20;;;8.10;99.90;;;;;;5010605;28;21278;-70
2021/12/23 19:52:23;;;;;;;17.33;10.73;;;8.10;99.90;;;;;;5023159;28;20233;-69
2021/12/23 19:54:48;;;;;;;19.70;12.03;;;8.10;99.90;;;;;;5030431;28;20239;-69
2021/12/23 19:57:14;;;;;;;23.70;10.57;;;8.10;99.90;;;;;;5030531;28;20466;-69
2021/12/23 19:59:39;;;;;;;15.10;9.60;;;8.20;99.90;;;;;;5031085;28;20264;-69
2021/12/23 20:02:05;;;;;;;20.27;12.33;;;8.20;99.90;;;;;;5030797;28;20201;-70
2021/12/23 20:04:31;;;;;;;13.83;9.33;;;8.20;99.90;;;;;;5031399;28;20170;-70
2021/12/23 20:06:56;;;;;;;15.13;10.00;;;8.20;99.90;;;;;;5028634;28;20181;-70
2021/12/23 20:09:22;;;;;;;17.83;9.90;;;8.20;99.90;;;;;;5031349;28;20786;-69
2021/12/23 20:11:48;;;;;;;16.23;10.10;;;8.30;99.90;;;;;;5013562;28;20210;-70
2021/12/23 20:14:13;;;;;;;14.00;9.00;;;8.30;99.90;;;;;;5012392;28;20181;-69
2021/12/23 20:16:40;;;;;;;13.37;8.73;;;8.30;99.90;;;;;;5032756;28;21000;-69
2021/12/23 20:19:06;;;;;;;16.70;9.60;;;8.30;99.90;;;;;;5029143;28;20202;-70
2021/12/23 20:21:33;;;;;;;14.37;8.57;;;8.30;99.90;;;;;;5029352;28;20455;-69
2021/12/23 20:24:00;;;;;;;13.83;8.30;;;8.30;99.90;;;;;;5029223;28;20496;-69
2021/12/23 20:26:26;;;;;;;14.10;8.30;;;8.30;99.90;;;;;;5030688;28;20504;-70
2021/12/23 20:28:52;;;;;;;16.13;8.80;;;8.20;99.90;;;;;;5029747;28;20428;-69
2021/12/23 20:31:22;;;;;;;12.23;8.83;;;8.20;99.90;;;;;;5029209;28;20428;-69
2021/12/23 20:33:48;;;;;;;15.70;8.77;;;8.20;99.90;;;;;;5030759;28;20186;-70
2021/12/23 20:36:14;;;;;;;17.13;9.17;;;8.30;99.90;;;;;;5028881;28;20471;-69
2021/12/23 20:38:40;;;;;;;12.10;8.20;;;;;;;;;;5030129;28;20432;-70
2021/12/23 20:41:06;;;;;;;13.77;8.47;;;;;;;;;;5029766;28;20205;-69
2021/12/23 20:43:31;;;;;;;15.50;7.90;;;8.30;99.90;;;;;;5030640;28;20260;-70
2021/12/23 20:45:57;;;;;;;11.53;8.17;;;8.30;99.90;;;;;;5029522;28;20185;-70
2021/12/23 20:48:22;;;;;;;13.00;8.80;;;8.30;99.90;;;;;;5029841;28;20170;-69
2021/12/23 20:50:52;;;;;;;13.03;8.20;;;8.40;99.90;;;;;;5026220;28;20243;-69
2021/12/23 20:53:26;;;;;;;12.60;8.23;;;8.40;99.90;;;;;;5030320;28;20170;-70
2021/12/23 20:56:01;;;;;;;14.03;8.83;;;8.40;99.90;;;;;;5029008;28;20436;-69
2021/12/23 20:58:29;;;;;;;15.07;8.27;;;8.40;99.90;;;;;;5029511;28;20420;-69
2021/12/23 21:00:57;;;;;;;17.37;8.97;;;8.50;99.90;;;;;;5029799;28;20423;-69
2021/12/23 21:03:24;;;;;;;10.80;6.90;;;8.50;99.90;;;;;;5044944;28;20417;-69
2021/12/23 21:05:50;;;;;;;15.20;7.77;;;8.60;99.90;;;;;;5028269;28;20424;-69
2021/12/23 21:08:16;;;;;;;11.00;7.70;;;8.60;99.90;;;;;;5027745;28;20424;-70